createdAt,value
2023-02-19T00:01:01.105Z,3.75
2023-02-19T00:03:04.866Z,4.07
2023-02-19T00:05:07.128Z,3.60
2023-02-19T00:07:09.245Z,4.05
2023-02-19T00:11:20.494Z,3.55
2023-02-19T00:13:22.524Z,4.07
2023-02-19T00:15:25.110Z,3.45
2023-02-19T00:17:27.151Z,3.55
2023-02-19T00:19:47.566Z,3.65
2023-02-19T00:22:09.972Z,3.47
2023-02-19T00:24:20.492Z,4.13
2023-02-19T00:28:24.627Z,3.70
2023-02-19T00:30:26.876Z,3.95
2023-02-19T00:32:29.002Z,5.43
2023-02-19T00:34:31.132Z,4.20
2023-02-19T00:36:53.503Z,3.38
2023-02-19T00:39:18.302Z,4.32
2023-02-19T00:41:40.773Z,3.92
2023-02-19T00:44:07.744Z,4.20
2023-02-19T00:46:33.347Z,3.72
2023-02-19T00:48:56.348Z,4.78
2023-02-19T00:51:19.223Z,4.25
2023-02-19T00:53:41.908Z,3.80
2023-02-19T00:56:04.644Z,3.85
2023-02-19T00:58:26.972Z,3.75
2023-02-19T01:00:49.358Z,3.80
2023-02-19T01:03:11.678Z,3.70
2023-02-19T01:05:34.032Z,3.83
2023-02-19T01:07:51.795Z,4.20
2023-02-19T01:09:53.852Z,3.97
2023-02-19T01:11:55.872Z,4.60
2023-02-19T01:14:18.227Z,3.78
2023-02-19T01:16:40.576Z,4.15
2023-02-19T01:19:03.019Z,3.50
2023-02-19T01:21:27.059Z,4.60
2023-02-19T01:23:29.758Z,3.78
2023-02-19T01:25:31.873Z,4.28
2023-02-19T01:27:33.929Z,3.75
2023-02-19T01:29:36.334Z,3.42
2023-02-19T01:31:39.928Z,4.40
2023-02-19T01:33:48.562Z,3.97
2023-02-19T01:35:50.930Z,3.97
2023-02-19T01:37:53.060Z,3.60
2023-02-19T01:39:55.159Z,4.32
2023-02-19T01:42:05.017Z,3.72
2023-02-19T01:44:15.865Z,3.40
2023-02-19T01:46:17.898Z,3.72
2023-02-19T01:48:23.834Z,5.28
2023-02-19T01:50:26.623Z,4.07
2023-02-19T01:52:34.648Z,3.70
2023-02-19T01:54:57.137Z,4.18
2023-02-19T01:57:25.749Z,3.60
2023-02-19T01:59:48.493Z,3.90
2023-02-19T02:02:10.887Z,4.18
2023-02-19T02:04:33.390Z,3.58
2023-02-19T02:06:56.664Z,3.47
2023-02-19T02:12:00.247Z,4.28
2023-02-19T02:14:26.103Z,4.93
2023-02-19T02:17:09.990Z,4.13
2023-02-19T02:19:44.209Z,4.68
2023-02-19T02:22:36.032Z,4.53
2023-02-19T02:24:58.167Z,4.75
2023-02-19T02:27:34.771Z,4.72
2023-02-19T02:29:55.062Z,4.03
2023-02-19T02:31:59.289Z,4.00
2023-02-19T02:34:21.204Z,4.03
2023-02-19T02:36:35.382Z,3.90
2023-02-19T02:38:58.409Z,4.07
2023-02-19T02:41:20.780Z,4.13
2023-02-19T02:43:43.171Z,3.80
2023-02-19T02:45:55.949Z,4.05
2023-02-19T02:47:58.008Z,5.18
2023-02-19T02:50:06.021Z,4.25
2023-02-19T02:52:36.670Z,3.88
2023-02-19T02:54:57.464Z,3.70
2023-02-19T02:56:59.558Z,3.45
2023-02-19T02:59:25.069Z,3.63
2023-02-19T03:02:18.865Z,3.97
2023-02-19T03:07:29.146Z,3.90
2023-02-19T03:09:40.693Z,3.95
2023-02-19T03:12:03.684Z,4.35
2023-02-19T03:14:35.550Z,3.30
2023-02-19T03:16:56.314Z,4.40
2023-02-19T03:19:19.321Z,4.80
2023-02-19T03:21:42.088Z,4.38
2023-02-19T03:24:23.550Z,3.95
2023-02-19T03:26:45.918Z,4.65
2023-02-19T03:29:23.436Z,4.70
2023-02-19T03:31:45.901Z,4.85
2023-02-19T03:34:09.985Z,4.20
2023-02-19T03:36:15.394Z,4.75
2023-02-19T03:38:41.752Z,4.50
2023-02-19T03:40:54.474Z,4.95
2023-02-19T03:43:23.973Z,4.72
2023-02-19T03:45:57.648Z,4.80
2023-02-19T03:48:41.492Z,4.32
2023-02-19T03:50:58.963Z,4.75
2023-02-19T03:53:23.400Z,4.70
2023-02-19T03:55:39.833Z,4.43
2023-02-19T03:58:14.406Z,4.63
2023-02-19T04:00:32.513Z,4.72
2023-02-19T04:02:54.076Z,4.68
2023-02-19T04:05:18.654Z,4.80
2023-02-19T04:07:22.185Z,4.55
2023-02-19T04:09:27.820Z,4.55
2023-02-19T04:11:30.627Z,4.20
2023-02-19T04:14:06.640Z,4.78
2023-02-19T04:16:20.093Z,3.90
2023-02-19T04:18:29.052Z,4.88
2023-02-19T04:20:34.390Z,3.78
2023-02-19T04:22:41.282Z,4.20
2023-02-19T04:24:47.871Z,4.35
2023-02-19T04:26:49.899Z,5.05
2023-02-19T04:28:52.853Z,4.43
2023-02-19T04:30:54.951Z,4.30
2023-02-19T04:32:57.025Z,4.05
2023-02-19T04:35:19.371Z,4.22
2023-02-19T04:37:22.862Z,4.25
2023-02-19T04:39:24.905Z,3.42
2023-02-19T04:41:26.941Z,5.20
2023-02-19T04:43:49.298Z,4.05
2023-02-19T04:46:11.658Z,4.85
2023-02-19T04:48:33.984Z,3.67
2023-02-19T04:50:56.406Z,4.50
2023-02-19T04:53:18.752Z,4.95
2023-02-19T04:55:41.099Z,4.20
2023-02-19T04:57:43.209Z,4.63
2023-02-19T04:59:46.526Z,3.42
2023-02-19T05:01:48.591Z,4.13
2023-02-19T05:03:51.420Z,4.05
2023-02-19T05:05:53.457Z,4.35
2023-02-19T05:07:55.510Z,4.00
2023-02-19T05:10:18.001Z,3.97
2023-02-19T05:12:31.848Z,4.45
2023-02-19T05:14:33.883Z,4.40
2023-02-19T05:16:35.910Z,4.22
2023-02-19T05:18:58.274Z,5.38
2023-02-19T05:21:20.690Z,4.40
2023-02-19T05:23:43.106Z,4.50
2023-02-19T05:26:18.051Z,5.03
2023-02-19T05:28:20.545Z,4.95
2023-02-19T05:30:22.598Z,5.35
2023-02-19T05:32:44.950Z,4.95
2023-02-19T05:35:07.301Z,4.75
2023-02-19T05:37:29.716Z,5.55
2023-02-19T05:39:52.056Z,4.97
2023-02-19T05:41:54.187Z,4.80
2023-02-19T05:43:56.802Z,5.05
2023-02-19T05:48:08.931Z,4.93
2023-02-19T05:50:10.966Z,4.57
2023-02-19T05:52:13.041Z,4.15
2023-02-19T05:54:35.391Z,4.65
2023-02-19T05:56:57.840Z,4.68
2023-02-19T05:59:23.632Z,4.40
2023-02-19T06:01:46.347Z,4.13
2023-02-19T06:04:10.811Z,4.78
2023-02-19T06:06:33.282Z,4.57
2023-02-19T06:08:55.781Z,5.40
2023-02-19T06:11:18.414Z,4.40
2023-02-19T06:13:40.761Z,4.72
2023-02-19T06:16:07.705Z,4.65
2023-02-19T06:18:30.059Z,4.53
2023-02-19T06:20:52.427Z,5.43
2023-02-19T06:23:15.657Z,4.93
2023-02-19T06:28:00.285Z,4.82
2023-02-19T06:30:22.759Z,5.18
2023-02-19T06:32:26.948Z,5.50
2023-02-19T06:34:29.094Z,4.82
2023-02-19T06:36:31.669Z,5.75
2023-02-19T06:40:35.752Z,5.57
2023-02-19T06:42:56.262Z,5.50
2023-02-19T06:45:00.854Z,5.63
2023-02-19T06:47:02.994Z,5.53
2023-02-19T06:49:05.611Z,6.97
2023-02-19T06:51:22.652Z,8.13
2023-02-19T06:53:24.816Z,6.75
2023-02-19T06:55:26.900Z,6.70
2023-02-19T06:57:49.241Z,6.72
2023-02-19T07:00:12.034Z,7.20
2023-02-19T07:02:34.368Z,7.03
2023-02-19T07:04:41.920Z,7.65
2023-02-19T07:06:43.931Z,7.43
2023-02-19T07:08:46.006Z,8.52
2023-02-19T07:10:57.817Z,7.97
2023-02-19T07:15:03.103Z,9.77
2023-02-19T07:17:05.793Z,8.02
2023-02-19T07:19:07.798Z,9.05
2023-02-19T07:21:14.188Z,8.88
2023-02-19T07:23:16.252Z,8.93
2023-02-19T07:25:18.284Z,8.88
2023-02-19T07:27:20.362Z,9.75
2023-02-19T07:29:23.755Z,9.30
2023-02-19T07:31:26.074Z,9.75
2023-02-19T07:33:28.185Z,9.07
2023-02-19T07:35:30.318Z,9.27
2023-02-19T07:37:32.331Z,8.73
2023-02-19T07:39:52.976Z,9.98
2023-02-19T07:41:58.235Z,8.80
2023-02-19T07:44:00.366Z,7.90
2023-02-19T07:46:12.732Z,8.80
2023-02-19T07:48:36.239Z,9.00
2023-02-19T07:50:58.829Z,9.40
2023-02-19T07:53:00.859Z,8.85
2023-02-19T07:55:02.964Z,10.23
2023-02-19T07:57:08.879Z,9.63
2023-02-19T07:59:11.773Z,10.23
2023-02-19T08:01:45.293Z,9.82
2023-02-19T08:03:50.322Z,9.77
2023-02-19T08:05:53.882Z,10.15
2023-02-19T08:07:56.132Z,10.85
2023-02-19T08:10:41.785Z,9.85
2023-02-19T08:13:02.285Z,10.13
2023-02-19T08:15:04.577Z,10.35
2023-02-19T08:17:06.678Z,10.10
2023-02-19T08:19:27.239Z,10.25
2023-02-19T08:21:50.670Z,10.30
2023-02-19T08:23:52.879Z,10.23
2023-02-19T08:25:57.941Z,9.82
2023-02-19T08:28:02.888Z,9.07
2023-02-19T08:30:23.931Z,8.45
2023-02-19T08:32:26.014Z,8.15
2023-02-19T08:34:28.044Z,7.18
2023-02-19T08:36:50.784Z,7.43
2023-02-19T08:38:58.906Z,7.18
2023-02-19T08:41:19.471Z,6.70
2023-02-19T08:43:21.494Z,5.60
2023-02-19T08:45:24.385Z,7.47
2023-02-19T08:47:26.398Z,6.00
2023-02-19T08:49:34.084Z,14.73
2023-02-19T08:51:36.268Z,7.60
2023-02-19T08:53:39.336Z,5.75
2023-02-19T08:55:41.377Z,5.90
2023-02-19T08:57:45.829Z,4.72
2023-02-19T08:59:47.853Z,5.20
2023-02-19T09:01:53.077Z,4.85
2023-02-19T09:04:13.114Z,3.97
2023-02-19T09:06:21.341Z,4.88
2023-02-19T09:08:23.463Z,5.28
2023-02-19T09:10:27.777Z,4.30
2023-02-19T09:12:29.824Z,4.35
2023-02-19T09:14:33.702Z,3.60
2023-02-19T09:16:38.753Z,3.70
2023-02-19T09:18:40.839Z,3.58
2023-02-19T09:20:42.928Z,3.55
2023-02-19T09:22:45.047Z,4.15
2023-02-19T09:24:47.061Z,4.22
2023-02-19T09:26:53.036Z,3.15
2023-02-19T09:28:55.245Z,2.97
2023-02-19T09:30:57.347Z,3.85
2023-02-19T09:32:59.458Z,3.30
2023-02-19T09:35:09.874Z,3.70
2023-02-19T09:37:11.896Z,3.30
2023-02-19T09:39:13.928Z,3.35
2023-02-19T09:41:33.611Z,4.00
2023-02-19T09:43:35.645Z,2.92
2023-02-19T09:45:38.184Z,3.38
2023-02-19T09:48:00.717Z,3.50
2023-02-19T09:50:09.638Z,3.40
2023-02-19T09:52:35.603Z,2.60
2023-02-19T09:54:37.835Z,3.42
2023-02-19T09:56:39.947Z,3.25
2023-02-19T09:58:49.228Z,3.22
2023-02-19T10:01:12.055Z,3.50
2023-02-19T10:03:30.970Z,3.00
2023-02-19T10:05:34.070Z,4.03
2023-02-19T10:07:45.899Z,3.33
2023-02-19T10:10:14.179Z,4.10
2023-02-19T10:12:36.684Z,3.22
2023-02-19T10:15:12.947Z,4.45
2023-02-19T10:17:36.926Z,3.50
2023-02-19T10:19:59.522Z,3.22
2023-02-19T10:22:21.984Z,3.33
2023-02-19T10:24:44.582Z,3.43
2023-02-19T10:27:16.332Z,3.20
2023-02-19T10:29:38.843Z,3.45
2023-02-19T10:31:44.956Z,3.03
2023-02-19T10:34:07.677Z,2.33
2023-02-19T10:36:37.416Z,2.35
2023-02-19T10:38:47.129Z,2.50
2023-02-19T10:41:05.384Z,2.80
2023-02-19T10:43:33.258Z,2.75
2023-02-19T10:45:55.607Z,2.92
2023-02-19T10:48:28.590Z,2.33
2023-02-19T10:50:33.096Z,2.00
2023-02-19T10:52:36.245Z,2.10
2023-02-19T10:54:38.663Z,2.55
2023-02-19T10:56:42.247Z,2.58
2023-02-19T10:58:45.065Z,2.30
2023-02-19T11:00:47.085Z,2.90
2023-02-19T11:03:22.097Z,2.50
2023-02-19T11:05:25.151Z,2.53
2023-02-19T11:07:27.304Z,2.50
2023-02-19T11:09:47.461Z,2.55
2023-02-19T11:11:52.332Z,2.20
2023-02-19T11:13:56.449Z,2.92
2023-02-19T11:15:59.000Z,2.17
2023-02-19T11:20:16.219Z,2.53
2023-02-19T11:22:32.402Z,2.28
2023-02-19T11:24:38.099Z,2.63
2023-02-19T11:26:40.136Z,2.90
2023-02-19T11:28:42.467Z,2.40
2023-02-19T11:30:45.737Z,2.17
2023-02-19T11:32:47.802Z,2.05
2023-02-19T11:34:50.014Z,2.10
2023-02-19T11:37:21.290Z,2.30
2023-02-19T11:39:29.107Z,1.83
2023-02-19T11:42:08.065Z,1.90
2023-02-19T11:44:42.064Z,1.90
2023-02-19T11:47:32.593Z,1.75
2023-02-19T11:49:58.847Z,2.20
2023-02-19T11:52:16.564Z,2.22
2023-02-19T11:54:48.803Z,2.80
2023-02-19T11:57:14.512Z,2.65
2023-02-19T11:59:34.070Z,3.10
2023-02-19T12:01:54.567Z,2.10
2023-02-19T12:04:05.583Z,2.00
2023-02-19T12:06:23.405Z,2.10
2023-02-19T12:08:49.916Z,1.95
2023-02-19T12:11:16.093Z,1.95
2023-02-19T12:13:46.992Z,1.70
2023-02-19T12:16:31.826Z,2.33
2023-02-19T12:19:37.041Z,1.85
2023-02-19T12:21:56.539Z,1.67
2023-02-19T12:24:16.606Z,1.70
2023-02-19T12:26:28.407Z,1.75
2023-02-19T12:28:49.182Z,1.88
2023-02-19T12:31:19.010Z,2.10
2023-02-19T12:33:49.746Z,1.90
2023-02-19T12:36:34.585Z,1.98
2023-02-19T12:39:01.405Z,1.90
2023-02-19T12:41:28.309Z,1.30
2023-02-19T12:43:30.347Z,1.50
2023-02-19T12:45:36.149Z,1.85
2023-02-19T12:47:40.769Z,1.70
2023-02-19T12:49:47.243Z,1.63
2023-02-19T12:51:50.951Z,3.30
2023-02-19T12:54:25.701Z,2.20
2023-02-19T12:56:52.122Z,1.80
2023-02-19T12:58:59.284Z,1.83
2023-02-19T13:01:01.394Z,1.50
2023-02-19T13:03:38.363Z,2.42
2023-02-19T13:06:36.305Z,1.73
2023-02-19T13:09:08.194Z,1.70
2023-02-19T13:11:31.529Z,1.50
2023-02-19T13:13:59.809Z,1.63
2023-02-19T13:16:23.491Z,1.30
2023-02-19T13:18:51.038Z,1.50
2023-02-19T13:20:55.085Z,1.75
2023-02-19T13:24:00.166Z,1.80
2023-02-19T13:27:20.449Z,1.92
2023-02-19T13:29:59.395Z,1.52
2023-02-19T13:32:07.521Z,1.30
2023-02-19T13:34:44.780Z,1.60
2023-02-19T13:36:48.492Z,1.10
2023-02-19T13:38:51.308Z,1.10
2023-02-19T13:43:08.651Z,1.23
2023-02-19T13:45:34.060Z,1.50
2023-02-19T13:47:49.405Z,1.60
2023-02-19T13:49:52.310Z,1.35
2023-02-19T13:51:57.800Z,1.27
2023-02-19T13:54:01.096Z,1.63
2023-02-19T13:56:03.299Z,1.80
2023-02-19T13:58:33.192Z,1.52
2023-02-19T14:00:51.389Z,1.67
2023-02-19T14:03:38.089Z,1.45
2023-02-19T14:06:09.817Z,1.40
2023-02-19T14:08:11.928Z,1.10
2023-02-19T14:11:03.461Z,2.05
2023-02-19T14:13:08.733Z,1.55
2023-02-19T14:15:44.250Z,1.13
2023-02-19T14:17:46.443Z,2.10
2023-02-19T14:19:54.128Z,1.73
2023-02-19T14:21:56.186Z,1.50
2023-02-19T14:23:58.430Z,1.48
2023-02-19T14:26:01.270Z,1.60
2023-02-19T14:28:10.101Z,1.55
2023-02-19T14:30:35.321Z,1.38
2023-02-19T14:32:38.857Z,1.42
2023-02-19T14:34:45.773Z,1.52
2023-02-19T14:37:01.440Z,1.40
2023-02-19T14:39:05.225Z,1.17
2023-02-19T14:41:07.445Z,1.40
2023-02-19T14:43:13.967Z,1.55
2023-02-19T14:45:16.128Z,1.50
2023-02-19T14:47:20.344Z,2.20
2023-02-19T14:49:50.190Z,2.25
2023-02-19T14:51:59.514Z,1.70
2023-02-19T14:54:10.519Z,1.70
2023-02-19T14:56:26.836Z,1.70
2023-02-19T14:58:33.369Z,1.60
2023-02-19T15:00:40.609Z,1.65
2023-02-19T15:02:43.056Z,1.88
2023-02-19T15:04:45.320Z,1.48
2023-02-19T15:06:47.468Z,1.80
2023-02-19T15:08:52.775Z,1.40
2023-02-19T15:10:55.834Z,1.45
2023-02-19T15:13:00.460Z,1.70
2023-02-19T15:15:04.627Z,1.73
2023-02-19T15:17:06.864Z,1.75
2023-02-19T15:19:09.858Z,1.90
2023-02-19T15:21:27.504Z,1.60
2023-02-19T15:23:30.868Z,1.75
2023-02-19T15:25:36.269Z,1.50
2023-02-19T15:27:38.340Z,1.50
2023-02-19T15:29:50.101Z,1.40
2023-02-19T15:31:58.826Z,1.42
2023-02-19T15:34:00.948Z,2.50
2023-02-19T15:36:07.854Z,3.25
2023-02-19T15:38:10.275Z,2.38
2023-02-19T15:40:13.060Z,1.63
2023-02-19T15:42:26.958Z,1.30
2023-02-19T15:45:07.673Z,1.63
2023-02-19T15:47:43.993Z,1.40
2023-02-19T15:50:17.563Z,1.70
2023-02-19T15:55:20.438Z,1.98
2023-02-19T15:57:29.163Z,1.70
2023-02-19T15:59:45.096Z,2.17
2023-02-19T16:01:47.203Z,2.28
2023-02-19T16:03:49.558Z,2.25
2023-02-19T16:06:02.232Z,2.35
2023-02-19T16:08:13.156Z,2.53
2023-02-19T16:10:23.481Z,1.48
2023-02-19T16:12:27.415Z,1.55
2023-02-19T16:14:36.766Z,1.50
2023-02-19T16:16:39.928Z,2.45
2023-02-19T16:18:46.684Z,2.13
2023-02-19T16:20:48.760Z,1.90
2023-02-19T16:22:51.073Z,1.45
2023-02-19T16:24:55.624Z,1.90
2023-02-19T16:26:57.916Z,1.67
2023-02-19T16:29:00.175Z,1.75
2023-02-19T16:31:10.315Z,2.22
2023-02-19T16:33:34.741Z,2.78
2023-02-19T16:35:39.900Z,2.40
2023-02-19T16:37:57.154Z,2.30
2023-02-19T16:40:08.432Z,2.33
2023-02-19T16:42:14.477Z,1.80
2023-02-19T16:44:25.209Z,2.45
2023-02-19T16:46:27.262Z,2.42
2023-02-19T16:48:29.370Z,2.72
2023-02-19T16:50:31.487Z,2.70
2023-02-19T16:52:33.612Z,2.33
2023-02-19T16:54:35.744Z,2.38
2023-02-19T16:56:37.960Z,3.72
2023-02-19T16:58:40.100Z,3.72
2023-02-19T17:00:42.397Z,2.47
2023-02-19T17:02:46.940Z,2.08
2023-02-19T17:04:49.562Z,2.30
2023-02-19T17:08:53.886Z,1.60
2023-02-19T17:11:03.137Z,2.13
2023-02-19T17:13:05.202Z,2.53
2023-02-19T17:15:07.818Z,2.28
2023-02-19T17:17:10.597Z,2.33
2023-02-19T17:19:18.249Z,1.88
2023-02-19T17:21:31.981Z,2.47
2023-02-19T17:23:34.054Z,2.90
2023-02-19T17:25:36.168Z,3.03
2023-02-19T17:27:38.155Z,2.75
2023-02-19T17:29:40.547Z,3.05
2023-02-19T17:32:01.221Z,3.78
2023-02-19T17:34:03.407Z,4.13
2023-02-19T17:36:06.076Z,4.40
2023-02-19T17:40:33.590Z,7.22
2023-02-19T17:42:35.902Z,9.20
2023-02-19T17:44:37.985Z,10.18
2023-02-19T17:46:40.139Z,11.00
2023-02-19T17:48:47.885Z,10.70
2023-02-19T17:50:52.275Z,10.65
2023-02-19T17:52:54.406Z,10.90
2023-02-19T17:55:06.460Z,10.27
2023-02-19T17:57:08.556Z,10.60
2023-02-19T17:59:11.050Z,9.70
2023-02-19T18:01:32.307Z,8.32
2023-02-19T18:03:54.843Z,8.75
2023-02-19T18:06:14.534Z,8.13
2023-02-19T18:08:16.673Z,8.48
2023-02-19T18:10:19.870Z,9.65
2023-02-19T18:12:42.370Z,9.15
2023-02-19T18:14:50.815Z,8.38
2023-02-19T18:16:52.880Z,8.65
2023-02-19T18:18:55.278Z,7.78
2023-02-19T18:20:57.359Z,7.57
2023-02-19T18:22:59.483Z,7.05
2023-02-19T18:25:01.520Z,7.38
2023-02-19T18:27:03.815Z,7.43
2023-02-19T18:29:06.044Z,6.18
2023-02-19T18:31:08.445Z,6.50
2023-02-19T18:33:13.283Z,5.78
2023-02-19T18:35:16.664Z,6.00
2023-02-19T18:37:37.212Z,5.80
2023-02-19T18:39:39.358Z,5.47
2023-02-19T18:41:41.406Z,6.88
2023-02-19T18:43:43.549Z,5.50
2023-02-19T18:45:46.659Z,5.32
2023-02-19T18:47:49.609Z,5.60
2023-02-19T18:49:55.113Z,6.05
2023-02-19T18:51:59.146Z,6.25
2023-02-19T18:54:02.179Z,6.25
2023-02-19T18:56:05.515Z,6.90
2023-02-19T18:58:07.607Z,7.00
2023-02-19T19:00:28.267Z,6.82
2023-02-19T19:02:42.706Z,7.03
2023-02-19T19:04:51.562Z,6.82
2023-02-19T19:06:53.681Z,6.93
2023-02-19T19:08:55.704Z,6.10
2023-02-19T19:10:57.871Z,8.20
2023-02-19T19:13:00.043Z,6.43
2023-02-19T19:15:02.090Z,6.75
2023-02-19T19:17:04.982Z,7.40
2023-02-19T19:19:07.004Z,6.88
2023-02-19T19:21:09.785Z,7.20
2023-02-19T19:23:12.521Z,6.28
2023-02-19T19:25:15.208Z,6.95
2023-02-19T19:29:22.365Z,5.38
2023-02-19T19:33:30.526Z,5.90
2023-02-19T19:35:32.936Z,4.72
2023-02-19T19:37:34.970Z,5.20
2023-02-19T19:39:37.401Z,5.20
2023-02-19T19:41:39.917Z,5.05
2023-02-19T19:43:41.967Z,4.32
2023-02-19T19:45:44.030Z,3.78
2023-02-19T19:47:46.319Z,4.10
2023-02-19T19:49:48.401Z,4.90
2023-02-19T19:51:50.464Z,3.63
2023-02-19T19:53:58.606Z,3.92
2023-02-19T19:56:01.074Z,3.42
2023-02-19T19:58:03.529Z,3.47
2023-02-19T20:00:06.877Z,4.28
2023-02-19T20:02:11.122Z,3.70
2023-02-19T20:04:13.173Z,3.63
2023-02-19T20:06:27.648Z,3.85
2023-02-19T20:08:49.230Z,3.53
2023-02-19T20:10:51.274Z,4.25
2023-02-19T20:12:53.498Z,4.38
2023-02-19T20:14:55.553Z,4.00
2023-02-19T20:16:57.673Z,3.70
2023-02-19T20:18:59.817Z,3.75
2023-02-19T20:21:05.153Z,4.10
2023-02-19T20:23:07.226Z,3.92
2023-02-19T20:25:11.255Z,3.75
2023-02-19T20:27:14.859Z,3.65
2023-02-19T20:29:35.984Z,4.38
2023-02-19T20:31:38.743Z,3.85
2023-02-19T20:33:40.966Z,3.85
2023-02-19T20:35:46.002Z,4.40
2023-02-19T20:37:49.636Z,4.85
2023-02-19T20:39:51.733Z,4.40
2023-02-19T20:41:53.871Z,5.50
2023-02-19T20:43:58.710Z,4.70
2023-02-19T20:46:01.372Z,5.72
2023-02-19T20:50:07.276Z,5.20
2023-02-19T20:52:09.352Z,4.60
2023-02-19T20:54:11.443Z,5.18
2023-02-19T20:56:13.711Z,4.82
2023-02-19T20:58:19.456Z,4.50
2023-02-19T21:00:22.794Z,5.40
2023-02-19T21:02:29.246Z,4.88
2023-02-19T21:04:34.863Z,4.38
2023-02-19T21:06:36.958Z,4.68
2023-02-19T21:08:50.987Z,5.15
2023-02-19T21:10:55.114Z,4.47
2023-02-19T21:12:57.474Z,4.22
2023-02-19T21:14:59.655Z,5.03
2023-02-19T21:17:01.754Z,4.55
2023-02-19T21:19:03.923Z,4.22
2023-02-19T21:21:26.222Z,4.07
2023-02-19T21:23:28.423Z,4.00
2023-02-19T21:25:33.212Z,4.05
2023-02-19T21:27:35.388Z,3.75
2023-02-19T21:29:37.429Z,4.18
2023-02-19T21:31:44.629Z,3.70
2023-02-19T21:33:47.026Z,4.00
2023-02-19T21:35:49.259Z,4.38
2023-02-19T21:37:51.297Z,3.85
2023-02-19T21:39:54.850Z,4.80
2023-02-19T21:41:58.700Z,4.30
2023-02-19T21:44:00.792Z,3.95
2023-02-19T21:46:02.889Z,3.97
2023-02-19T21:48:25.334Z,3.38
2023-02-19T21:50:27.411Z,3.67
2023-02-19T21:52:48.252Z,4.00
2023-02-19T21:54:50.343Z,3.95
2023-02-19T21:56:53.405Z,3.75
2023-02-19T21:59:14.213Z,3.65
2023-02-19T22:01:23.397Z,3.95
2023-02-19T22:03:26.691Z,4.00
2023-02-19T22:05:29.259Z,3.85
2023-02-19T22:07:50.320Z,4.07
2023-02-19T22:09:52.553Z,3.75
2023-02-19T22:11:54.596Z,3.40
2023-02-19T22:13:56.714Z,3.38
2023-02-19T22:15:58.830Z,3.15
2023-02-19T22:18:06.812Z,4.30
2023-02-19T22:20:27.286Z,3.88
2023-02-19T22:22:29.634Z,4.38
2023-02-19T22:24:31.832Z,4.00
2023-02-19T22:26:56.382Z,4.00
2023-02-19T22:29:05.932Z,4.18
2023-02-19T22:31:08.879Z,3.60
2023-02-19T22:33:10.953Z,3.65
2023-02-19T22:35:15.444Z,3.90
2023-02-19T22:37:38.128Z,4.53
2023-02-19T22:39:40.169Z,4.22
2023-02-19T22:41:43.064Z,3.70
2023-02-19T22:43:47.030Z,3.30
2023-02-19T22:45:49.100Z,4.15
2023-02-19T22:47:54.430Z,3.47
2023-02-19T22:49:56.517Z,3.58
2023-02-19T22:52:03.276Z,4.38
2023-02-19T22:54:05.399Z,3.80
2023-02-19T22:56:07.911Z,3.55
2023-02-19T22:58:11.787Z,4.35
2023-02-19T23:00:21.574Z,4.03
2023-02-19T23:02:23.631Z,3.67
2023-02-19T23:04:30.863Z,3.97
2023-02-19T23:06:34.375Z,4.22
2023-02-19T23:08:36.523Z,3.50
2023-02-19T23:10:51.874Z,4.20
2023-02-19T23:12:53.938Z,4.40
2023-02-19T23:14:55.958Z,3.97
2023-02-19T23:17:04.854Z,3.08
2023-02-19T23:19:11.517Z,4.10
2023-02-19T23:21:13.648Z,3.25
2023-02-19T23:23:35.864Z,3.80
2023-02-19T23:25:37.891Z,3.80
2023-02-19T23:27:39.962Z,4.30
2023-02-19T23:30:02.323Z,3.53
2023-02-19T23:32:05.047Z,3.53
2023-02-19T23:34:08.125Z,3.65
2023-02-19T23:36:10.993Z,3.63
2023-02-19T23:38:20.912Z,3.50
2023-02-19T23:40:22.940Z,3.08
2023-02-19T23:42:24.968Z,3.55
2023-02-19T23:44:30.777Z,3.33
2023-02-19T23:46:33.988Z,3.47
2023-02-19T23:48:36.006Z,3.67
2023-02-19T23:50:40.809Z,3.88
2023-02-19T23:52:42.845Z,3.95
2023-02-19T23:54:44.954Z,3.95
2023-02-19T23:56:50.769Z,3.53
2023-02-19T23:58:52.776Z,3.22
